Weather History for Mullan Pass, ID

Change the Weather History Date:

Tuesday, October 16, 2012

  Actual Average (K3TH) Record (K3TH)
Temperature  
Mean Temperature 37 °F -  
Max Temperature 46 °F 56 °F 66 °F (1997)
Min Temperature 28 °F 34 °F 29 °F (2002)
Degree Days  
Heating Degree Days 28    
Moisture  
Dew Point 34 °F    
Average Humidity 87    
Maximum Humidity 100    
Minimum Humidity 70    
Precipitation  
Precipitation 0.46 in - - ()
Sea Level Pressure  
Sea Level Pressure 29.67 in    
Wind  
Wind Speed 12 mph (WSW)    
Max Wind Speed 25 mph    
Max Gust Speed 48 mph    
Visibility 6 miles    
Events Fog , Rain , Snow    
Averages and records for this station are not official NWS values.
T = Trace of Precipitation, MM = Missing Value Source: NWS Daily Summary

Daily Weather History Graph

Daily Weather History Graph

Search for Another Location

Airport:

Trip Planner

Search our weather history database for the weather conditions in past years. The results will help you decide how hot, cold, wet, or windy it might be!

Date:

Astronomy

Oct. 16, 2012 Rise Set
Actual Time 7:03 AM PDT 5:51 PM PDT
Civil Twilight 6:32 AM PDT 6:22 PM PDT
Nautical Twilight 5:56 AM PDT 6:58 PM PDT
Astronomical Twilight 5:21 AM PDT 7:33 PM PDT
Moon 8:41 AM PDT (10/16) 6:29 PM PDT (10/16)
Length of Visible Light 11h 50m
Length of Day
10h 48m
New Moon, 2% of the Moon is Illuminated
Oct 16
New Moon
Oct 21
First Quarter
Oct 29
Full
Nov 6
Last Quarter
Nov 13
New

Hourly Weather History & Observations

Time (PDT) Temp. Windchill Dew Point Humidity Pressure Visibility Wind Dir Wind Speed Gust Speed Precip Events Conditions
12:11 AM 44.6 °F 39.2 °F 44.6 °F 100% 29.70 in 0.5 mi SSW 10.4 mph 26.5 mph 0.03 in Fog , Rain Light Rain
12:43 AM 46.4 °F 41.5 °F 46.4 °F 100% 29.69 in 0.2 mi SW 10.4 mph 28.8 mph 0.05 in Fog , Rain Light Rain
12:53 AM 46.0 °F 41.4 °F 46.0 °F 100% 29.50 in 0.5 mi SSW 9.2 mph 27.6 mph 0.06 in Fog , Rain Light Rain
1:13 AM 46.4 °F 41.9 °F 46.4 °F 100% 29.67 in 0.2 mi SW 9.2 mph 25.3 mph 0.01 in Fog , Rain Light Rain
1:42 AM 46.4 °F 41.1 °F 46.4 °F 100% 29.65 in 0.8 mi SW 11.5 mph 27.6 mph 0.03 in Rain Light Rain
1:53 AM 46.0 °F 41.0 °F 46.0 °F 100% 29.46 in 0.5 mi WSW 10.4 mph 24.2 mph 0.05 in Fog , Rain Light Rain
2:02 AM 46.4 °F 41.1 °F 46.4 °F 100% 29.64 in 0.5 mi SW 11.5 mph 24.2 mph 0.01 in Fog , Rain Light Rain
2:10 AM 46.4 °F 39.8 °F 46.4 °F 100% 29.64 in 0.5 mi SW 16.1 mph 28.8 mph 0.02 in Fog , Rain Light Rain
2:31 AM 46.4 °F 39.8 °F 46.4 °F 100% 29.61 in 1.2 mi SSW 16.1 mph 33.4 mph 0.06 in Rain Light Rain
2:47 AM 46.4 °F 40.4 °F 46.4 °F 100% 29.61 in 2.0 mi SW 13.8 mph 38.0 mph 0.13 in Rain Light Rain
2:53 AM 46.0 °F 39.0 °F 46.0 °F 100% 29.42 in 3.0 mi SW 17.3 mph 35.7 mph 0.13 in Rain Light Rain
3:01 AM 46.4 °F 41.1 °F 46.4 °F 100% 29.59 in 1.5 mi SW 11.5 mph 35.7 mph 0.01 in Rain Light Rain
3:08 AM 46.4 °F 41.1 °F 46.4 °F 100% 29.59 in 0.8 mi SW 11.5 mph 33.4 mph 0.01 in Rain Light Rain
3:31 AM 46.4 °F 40.1 °F 46.4 °F 100% 29.57 in 0.8 mi SSW 15.0 mph 33.4 mph 0.06 in Rain Light Rain
3:34 AM 46.4 °F 39.5 °F 46.4 °F 100% 29.56 in 1.5 mi SW 17.3 mph 38.0 mph 0.06 in Rain Light Rain
3:36 AM 46.4 °F 39.2 °F 46.4 °F 100% 29.57 in 3.0 mi SSW 18.4 mph 38.0 mph 0.07 in Rain Light Rain
3:53 AM 46.0 °F 38.8 °F 46.0 °F 100% 29.36 in 9.0 mi SSW 18.4 mph 39.1 mph 0.07 in Rain Light Rain
4:21 AM 46.4 °F 41.1 °F 46.4 °F 100% 29.51 in 2.5 mi SW 11.5 mph 29.9 mph 0.04 in Rain Light Rain
4:24 AM 46.4 °F 40.7 °F 46.4 °F 100% 29.51 in 1.8 mi SSW 12.7 mph 31.1 mph 0.04 in Rain Rain
4:29 AM 46.4 °F 40.1 °F 46.4 °F 100% 29.50 in 2.0 mi SW 15.0 mph 31.1 mph 0.05 in Rain Rain
4:32 AM 46.4 °F 40.1 °F 46.4 °F 100% 29.49 in 3.0 mi SW 15.0 mph 31.1 mph 0.06 in Rain Rain
4:50 AM 44.6 °F 39.7 °F 44.6 °F 100% 29.53 in 3.0 mi West 9.2 mph 28.8 mph 0.10 in Rain Rain
4:59 AM 42.8 °F 33.1 °F 42.8 °F 100% 29.52 in 1.2 mi West 25.3 mph 48.3 mph 0.07 in Rain Heavy Rain
5:08 AM 42.8 °F 37.0 °F 42.8 °F 100% 29.51 in 3.0 mi West 10.4 mph 39.1 mph 0.08 in Rain Light Rain
5:53 AM 45.0 °F 39.3 °F 44.1 °F 97% 29.32 in 10.0 mi West 11.5 mph 32.2 mph 0.09 in Rain Light Rain
6:53 AM 43.0 °F - 41.0 °F 93% 29.38 in 10.0 mi North - - 0.01 in Rain Light Rain
7:53 AM 41.0 °F 34.7 °F 37.9 °F 89% 29.34 in 7.0 mi West 10.4 mph 34.5 mph 0.02 in Rain Light Rain
8:30 AM 39.2 °F 32.5 °F 35.6 °F 87% 29.57 in 10.0 mi West 10.4 mph 33.4 mph 0.00 in Rain Light Rain
8:53 AM 37.9 °F 30.5 °F 34.0 °F 86% 29.44 in 10.0 mi West 11.5 mph 34.5 mph 0.00 in   Unknown
9:09 AM 35.6 °F 27.1 °F 30.2 °F 81% 29.60 in 8.0 mi West 12.7 mph 26.5 mph 0.00 in Snow Light Snow
9:28 AM 35.6 °F 26.6 °F 28.4 °F 75% 29.61 in 10.0 mi West 13.8 mph 28.8 mph 0.00 in   Mostly Cloudy
9:53 AM 35.1 °F 25.2 °F 28.9 °F 78% 29.47 in 10.0 mi West 16.1 mph 36.8 mph 0.00 in   Scattered Clouds
10:15 AM 33.8 °F 25.3 °F 30.2 °F 87% 29.62 in 10.0 mi West 11.5 mph 33.4 mph N/A   Mostly Cloudy
10:37 AM 35.6 °F 25.9 °F 30.2 °F 81% 29.64 in 10.0 mi WSW 16.1 mph 36.8 mph 0.00 in   Overcast
10:53 AM 34.0 °F 25.0 °F 28.9 °F 82% 29.51 in 3.0 mi West 12.7 mph 34.5 mph 0.00 in Snow Light Snow
11:25 AM 33.8 °F 24.8 °F 28.4 °F 81% 29.67 in 10.0 mi West 12.7 mph 31.1 mph 0.00 in   Overcast
11:53 AM 34.0 °F 23.4 °F 27.0 °F 75% 29.53 in 10.0 mi WSW 17.3 mph 39.1 mph 0.00 in   Mostly Cloudy
12:00 PM 35.6 °F 26.2 °F 26.6 °F 70% 29.69 in 10.0 mi West 15.0 mph 32.2 mph N/A   Mostly Cloudy
12:08 PM 33.8 °F 23.9 °F 26.6 °F 75% 29.70 in 10.0 mi West 15.0 mph 32.2 mph N/A   Mostly Cloudy
12:38 PM 33.8 °F 24.3 °F 26.6 °F 75% 29.71 in 7.0 mi WSW 13.8 mph 25.3 mph 0.01 in Snow Light Snow
12:53 PM 32.0 °F 21.6 °F 26.1 °F 79% 29.58 in 5.0 mi WSW 15.0 mph 33.4 mph 0.01 in Snow Light Snow
1:22 PM 32.0 °F 24.2 °F 26.6 °F 80% 29.74 in 2.0 mi WSW 9.2 mph 25.3 mph 0.00 in Snow Light Snow
1:34 PM 32.0 °F 24.8 °F 26.6 °F 80% 29.75 in 2.0 mi WNW 8.1 mph 21.9 mph 0.01 in Snow Light Snow
1:42 PM 33.8 °F 26.4 °F 26.6 °F 75% 29.75 in 9.0 mi West 9.2 mph 20.7 mph 0.01 in   Overcast
1:53 PM 35.1 °F 27.9 °F 27.0 °F 72% 29.59 in 10.0 mi WSW 9.2 mph 24.2 mph 0.01 in   Mostly Cloudy
2:09 PM 33.8 °F 23.9 °F 26.6 °F 75% 29.74 in 10.0 mi West 15.0 mph 28.8 mph N/A   Mostly Cloudy
2:53 PM 34.0 °F 25.5 °F 25.0 °F 70% 29.63 in 10.0 mi West 11.5 mph 29.9 mph N/A   Mostly Cloudy
3:53 PM 34.0 °F 26.0 °F 26.1 °F 73% 29.66 in 10.0 mi WNW 10.4 mph 24.2 mph N/A   Overcast
4:35 PM 33.8 °F 26.4 °F 26.6 °F 75% 29.83 in 6.0 mi WNW 9.2 mph 19.6 mph 0.00 in Snow Light Snow
4:44 PM 33.8 °F 24.3 °F 26.6 °F 75% 29.83 in 1.8 mi WNW 13.8 mph 27.6 mph 0.00 in Snow Light Snow
4:48 PM 30.2 °F 20.2 °F 28.4 °F 93% 29.83 in 0.8 mi WNW 12.7 mph 27.6 mph 0.00 in Snow Light Snow
4:53 PM 30.9 °F 21.7 °F 28.0 °F 89% 29.71 in 0.5 mi WNW 11.5 mph 27.6 mph 0.00 in Fog , Snow Snow
5:10 PM 30.2 °F 20.8 °F 28.4 °F 93% 29.84 in 1.5 mi West 11.5 mph 27.6 mph 0.01 in Snow Light Snow
5:16 PM 32.0 °F 25.6 °F 26.6 °F 80% 29.84 in 2.0 mi Variable 6.9 mph 27.6 mph 0.01 in Snow Light Snow
5:26 PM 32.0 °F 23.6 °F 26.6 °F 80% 29.84 in 8.0 mi West 10.4 mph 28.8 mph 0.01 in Snow Light Snow
5:53 PM 33.1 °F 25.5 °F 26.1 °F 75% 29.72 in 9.0 mi West 9.2 mph 27.6 mph 0.01 in   Overcast
6:17 PM 32.0 °F 23.6 °F 26.6 °F 80% 29.87 in 2.5 mi West 10.4 mph 25.3 mph 0.00 in Snow Light Snow
6:29 PM 32.0 °F 23.6 °F 26.6 °F 80% 29.88 in 4.0 mi WNW 10.4 mph 26.5 mph 0.00 in Snow Light Snow
6:36 PM 32.0 °F 23.6 °F 26.6 °F 80% 29.89 in 4.0 mi West 10.4 mph 29.9 mph 0.00 in Snow Light Snow
6:53 PM 32.0 °F 22.1 °F 26.1 °F 79% 29.77 in 7.0 mi West 13.8 mph 28.8 mph 0.00 in Snow Light Snow
7:38 PM 32.0 °F 24.2 °F 24.8 °F 75% 29.92 in 10.0 mi West 9.2 mph 24.2 mph 0.00 in Snow Light Snow
7:48 PM 32.0 °F 24.8 °F 24.8 °F 75% 29.92 in 9.0 mi West 8.1 mph 21.9 mph 0.00 in   Overcast
7:53 PM 32.0 °F 22.1 °F 25.0 °F 75% 29.81 in 9.0 mi West 13.8 mph 28.8 mph 0.00 in Snow Light Snow
8:06 PM 30.2 °F 23.4 °F 24.8 °F 80% 29.94 in 6.0 mi Variable 6.9 mph 16.1 mph 0.00 in Snow Light Snow
8:53 PM 30.9 °F 22.8 °F 24.1 °F 76% 29.85 in 10.0 mi West 9.2 mph 23.0 mph 0.00 in   Overcast
9:15 PM 30.2 °F 24.3 °F 24.8 °F 80% 29.96 in 10.0 mi Variable 5.8 mph - 0.00 in   Overcast
9:35 PM 30.2 °F 24.3 °F 24.8 °F 80% 29.96 in 10.0 mi Variable 5.8 mph 20.7 mph 0.00 in   Overcast
9:46 PM 30.2 °F 23.4 °F 24.8 °F 80% 29.96 in 10.0 mi Variable 6.9 mph - 0.00 in   Overcast
9:53 PM 30.9 °F 23.5 °F 24.1 °F 76% 29.87 in 10.0 mi West 8.1 mph - 0.00 in   Overcast
10:53 PM 28.9 °F 21.1 °F 24.1 °F 82% 29.89 in 10.0 mi West 8.1 mph 20.7 mph N/A   Partly Cloudy
11:12 PM 28.4 °F 20.4 °F 24.8 °F 86% 29.97 in 10.0 mi WSW 8.1 mph - N/A   Mostly Cloudy
11:53 PM 28.9 °F 22.8 °F 24.1 °F 82% 29.90 in 10.0 mi Variable 5.8 mph - N/A   Overcast